Time;durP1;ratioP1;P1;durP2;ratioP2;P2;SDS_P1;SDS_P2;PMS_P1;PMS_P2;Temp;Humidity;BMP_temperature;BMP_pressure;BME280_temperature;BME280_humidity;BME280_pressure;Samples;Min_cycle;Max_cycle;Signal;HPM_P1;HPM_P2
2023/05/18 00:00:26;;;;;;;;;;;;;;;12.96;100.00;101440.34;5013338;28;19913;-68
2023/05/18 00:02:52;;;;;;;;;;;;;;;12.96;100.00;101440.34;5013237;28;19913;-69
2023/05/18 00:05:17;;;;;;;;;;;;;;;12.86;100.00;101443.16;5014102;28;20396;-69
2023/05/18 00:07:43;;;;;;;;;;;;;;;12.86;100.00;101445.84;5016167;28;19918;-70
2023/05/18 00:10:09;;;;;;;;;;;;;;;12.89;100.00;101452.69;5016601;28;20000;-73
2023/05/18 00:12:34;;;;;;;;;;;;;;;12.90;100.00;101451.69;5016305;28;19949;-69
2023/05/18 00:15:00;;;;;;;;;;;;;;;12.86;100.00;101442.31;4998439;28;20403;-70
2023/05/18 00:17:25;;;;;;;;;;;;;;;12.86;100.00;101440.47;5012948;28;19914;-69
2023/05/18 00:19:50;;;;;;;;;;;;;;;12.90;100.00;101449.84;5012555;28;19999;-70
2023/05/18 00:22:18;;;;;;;;;;;;;;;12.90;100.00;101463.22;5012850;28;19913;-71
2023/05/18 00:24:47;;;;;;;;;;;;;;;12.90;100.00;101462.38;5012824;28;19914;-69
2023/05/18 00:27:13;;;;;;;;;;;;;;;12.87;100.00;101463.53;5012956;28;19975;-71
2023/05/18 00:29:39;;;;;;;;;;;;;;;12.81;100.00;101469.53;5012643;28;19948;-69
2023/05/18 00:32:05;;;;;;;;;;;;;;;12.78;100.00;101477.03;5012368;28;19914;-69
2023/05/18 00:34:30;;;;;;;;;;;;;;;12.76;100.00;101477.19;5012951;28;19913;-68
2023/05/18 00:36:56;;;;;;;;;;;;;;;12.65;100.00;101475.63;5012904;28;20432;-68
2023/05/18 00:39:21;;;;;;;;;;;;;;;12.60;100.00;101467.25;5012815;28;19988;-70
2023/05/18 00:41:47;;;;;;;;;;;;;;;12.59;100.00;101472.75;5012476;28;19917;-71
2023/05/18 00:44:13;;;;;;;;;;;;;;;12.58;100.00;101477.25;4994844;28;20436;-69
2023/05/18 00:46:38;;;;;;;;;;;;;;;12.59;100.00;101480.78;5012064;28;19921;-70
2023/05/18 00:49:03;;;;;;;;;;;;;;;12.64;100.00;101489.13;5012126;28;19959;-70
2023/05/18 00:51:31;;;;;;;;;;;;;;;12.66;100.00;101498.69;5012031;28;19913;-70
2023/05/18 00:53:56;;;;;;;;;;;;;;;12.66;100.00;101495.16;5012129;28;19913;-69
2023/05/18 00:56:23;;;;;;;;;;;;;;;12.64;100.00;101495.31;5012922;28;19921;-69
2023/05/18 00:58:51;;;;;;;;;;;;;;;12.65;100.00;101496.16;5015789;28;19913;-69
2023/05/18 01:01:18;;;;;;;;;;;;;;;12.60;100.00;101510.00;5015342;28;19914;-69
2023/05/18 01:03:43;;;;;;;;;;;;;;;12.59;100.00;101507.50;5015326;28;19976;-71
2023/05/18 01:06:09;;;;;;;;;;;;;;;12.53;100.00;101519.66;5015723;28;20357;-70
2023/05/18 01:08:36;;;;;;;;;;;;;;;12.51;99.50;101523.47;5017443;28;19913;-70
2023/05/18 01:11:16;;;;;;;;;;;;;;;12.47;98.69;101516.78;5015291;28;20017;-70
2023/05/18 01:14:00;;;;;;;;;;;;;;;12.37;96.95;101532.88;5014963;28;19917;-69
2023/05/18 01:16:27;;;;;;;;;;;;;;;12.31;95.13;101530.84;5015261;28;19914;-69
2023/05/18 01:18:59;;;;;;;;;;;;;;;12.18;90.69;101530.41;5015276;28;20419;-70
2023/05/18 01:21:41;;;;;;;;;;;;;;;12.00;88.17;101533.91;5015267;28;19917;-69
2023/05/18 01:24:07;;;;;;;;;;;;;;;11.95;88.57;101536.22;5014953;28;19968;-71
2023/05/18 01:26:36;;;;;;;;;;;;;;;11.89;86.02;101531.50;5014934;28;20316;-70
2023/05/18 01:29:07;;;;;;;;;;;;;;;11.79;85.96;101547.56;5015345;28;19921;-70
2023/05/18 01:31:33;;;;;;;;;;;;;;;11.77;85.28;101535.31;5014738;28;20012;-69
2023/05/18 01:33:58;;;;;;;;;;;;;;;11.77;85.21;101543.31;5014566;28;20444;-70
2023/05/18 01:36:24;;;;;;;;;;;;;;;11.73;85.33;101550.81;5014859;28;19968;-70
2023/05/18 01:38:50;;;;;;;;;;;;;;;11.73;85.18;101557.97;5014560;28;20369;-69
2023/05/18 01:41:17;;;;;;;;;;;;;;;11.67;84.38;101553.25;5014859;28;19914;-70
2023/05/18 01:43:55;;;;;;;;;;;;;;;11.68;84.34;101553.09;5014644;28;19921;-71
2023/05/18 01:46:27;;;;;;;;;;;;;;;11.63;81.81;101558.03;5014677;28;19920;-70
2023/05/18 01:48:55;;;;;;;;;;;;;;;11.58;82.75;101554.16;4997010;28;19913;-70
2023/05/18 01:51:21;;;;;;;;;;;;;;;11.51;81.25;101558.38;5014383;28;19953;-70
2023/05/18 01:53:52;;;;;;;;;;;;;;;11.47;81.81;101563.16;5014564;28;19914;-71
2023/05/18 01:56:19;;;;;;;;;;;;;;;11.43;80.79;101570.63;5014480;28;19948;-69
2023/05/18 01:58:45;;;;;;;;;;;;;;;11.38;81.08;101580.91;5014399;28;19967;-71
2023/05/18 02:01:10;;;;;;;;;;;;;;;11.41;81.74;101569.94;5014475;28;20289;-70
2023/05/18 02:03:36;;;;;;;;;;;;;;;11.42;81.86;101566.28;5014083;28;19914;-70
2023/05/18 02:06:01;;;;;;;;;;;;;;;11.46;81.53;101572.16;5014290;28;19913;-70
2023/05/18 02:08:26;;;;;;;;;;;;;;;11.45;81.25;101576.66;5014091;28;19921;-71
2023/05/18 02:10:52;;;;;;;;;;;;;;;11.36;79.84;101588.22;5014030;28;19917;-69
2023/05/18 02:13:17;;;;;;;;;;;;;;;11.35;80.50;101596.38;5014964;28;20322;-70
2023/05/18 02:15:43;;;;;;;;;;;;;;;11.34;79.72;101603.53;5015588;28;19967;-69
2023/05/18 02:18:09;;;;;;;;;;;;;;;11.34;79.22;101592.03;5013766;28;20403;-69
2023/05/18 02:20:36;;;;;;;;;;;;;;;11.28;77.99;101596.13;5013794;28;19913;-70
2023/05/18 02:23:02;;;;;;;;;;;;;;;11.21;77.83;101599.50;5014125;28;19917;-71
2023/05/18 02:25:27;;;;;;;;;;;;;;;11.07;77.59;101604.34;5013743;28;20337;-70
2023/05/18 02:27:52;;;;;;;;;;;;;;;11.04;77.71;101598.47;5013517;28;19917;-69
2023/05/18 02:30:18;;;;;;;;;;;;;;;11.01;77.95;101593.44;5013838;28;19917;-70
2023/05/18 02:32:45;;;;;;;;;;;;;;;10.98;78.38;101599.00;5013469;28;19921;-69
2023/05/18 02:35:11;;;;;;;;;;;;;;;11.02;78.29;101603.94;5013634;28;19913;-70
2023/05/18 02:37:38;;;;;;;;;;;;;;;11.00;76.86;101605.06;5013722;28;19914;-70
2023/05/18 02:40:14;;;;;;;;;;;;;;;10.95;77.31;101618.81;5013522;28;19914;-70
2023/05/18 02:42:40;;;;;;;;;;;;;;;10.93;78.50;101619.94;5013520;28;20044;-69
2023/05/18 02:45:06;;;;;;;;;;;;;;;10.88;78.61;101611.53;5013869;28;20020;-69
2023/05/18 02:47:32;;;;;;;;;;;;;;;10.90;78.45;101622.88;5013269;28;20376;-70
2023/05/18 02:49:58;;;;;;;;;;;;;;;10.91;78.22;101621.91;5013634;28;19913;-70
2023/05/18 02:52:23;;;;;;;;;;;;;;;10.91;78.66;101624.56;5013752;28;19948;-70
2023/05/18 02:54:48;;;;;;;;;;;;;;;10.96;78.67;101632.97;5013278;28;19913;-69
2023/05/18 02:57:14;;;;;;;;;;;;;;;10.91;80.32;101629.91;5013308;28;19914;-69
2023/05/18 02:59:39;;;;;;;;;;;;;;;10.95;80.77;101629.47;5013246;28;19913;-68
2023/05/18 03:02:05;;;;;;;;;;;;;;;10.93;81.39;101634.09;4995504;28;19913;-71
2023/05/18 03:04:30;;;;;;;;;;;;;;;10.92;80.45;101636.91;5013376;28;20392;-70
2023/05/18 03:06:57;;;;;;;;;;;;;;;10.97;79.65;101639.97;5012853;28;19920;-69
2023/05/18 03:09:22;;;;;;;;;;;;;;;10.84;79.05;101641.13;5012848;28;19959;-72
2023/05/18 03:11:48;;;;;;;;;;;;;;;10.78;80.36;101641.72;5013123;28;19946;-70
2023/05/18 03:14:13;;;;;;;;;;;;;;;10.76;81.06;101653.50;5013036;28;19914;-69
2023/05/18 03:16:39;;;;;;;;;;;;;;;10.69;81.45;101647.03;5013013;28;19913;-69
2023/05/18 03:19:04;;;;;;;;;;;;;;;10.66;82.23;101642.84;5012596;28;19913;-71
2023/05/18 03:21:32;;;;;;;;;;;;;;;10.67;82.40;101657.84;5013081;28;20457;-69
2023/05/18 03:24:04;;;;;;;;;;;;;;;10.67;82.23;101660.50;5013191;28;19966;-70
2023/05/18 03:26:34;;;;;;;;;;;;;;;10.70;81.57;101659.41;5012414;28;20008;-70
2023/05/18 03:29:00;;;;;;;;;;;;;;;10.77;81.98;101664.00;5011412;28;19925;-69
2023/05/18 03:31:26;;;;;;;;;;;;;;;10.80;82.69;101670.88;4995179;28;19917;-70
2023/05/18 03:33:51;;;;;;;;;;;;;;;10.79;82.04;101664.72;5012339;28;19918;-71
2023/05/18 03:36:17;;;;;;;;;;;;;;;10.79;83.56;101678.03;4994789;28;19966;-72
2023/05/18 03:38:45;;;;;;;;;;;;;;;10.73;83.65;101683.94;5012238;28;19913;-70
2023/05/18 03:41:11;;;;;;;;;;;;;;;10.70;84.31;101684.22;5012685;28;20003;-71
2023/05/18 03:43:36;;;;;;;;;;;;;;;10.66;83.13;101693.44;4994756;28;19914;-70
2023/05/18 03:46:01;;;;;;;;;;;;;;;10.77;82.96;101693.31;5012549;28;19930;-69
2023/05/18 03:48:28;;;;;;;;;;;;;;;10.91;82.64;101693.84;4995220;28;19914;-71
2023/05/18 03:50:54;;;;;;;;;;;;;;;11.10;82.47;101701.84;5012268;28;20393;-71
2023/05/18 03:53:20;;;;;;;;;;;;;;;11.52;80.84;101693.44;5012516;28;19914;-71
2023/05/18 03:55:46;;;;;;;;;;;;;;;11.95;79.01;101703.53;5012472;28;20000;-70
2023/05/18 03:58:12;;;;;;;;;;;;;;;12.33;77.83;101705.13;5012657;28;19925;-71
2023/05/18 04:00:37;;;;;;;;;;;;;;;12.51;76.39;101713.19;4994725;28;20008;-71
2023/05/18 04:03:03;;;;;;;;;;;;;;;12.16;75.73;101714.81;5012524;28;20429;-73
2023/05/18 04:05:29;;;;;;;;;;;;;;;12.39;77.98;101707.19;5011114;28;19918;-74
2023/05/18 04:07:56;;;;;;;;;;;;;;;13.09;74.73;101724.22;4978591;28;19961;-69
2023/05/18 04:10:22;;;;;;;;;;;;;;;13.15;72.74;101728.94;5013472;28;19917;-71
2023/05/18 04:12:48;;;;;;;;;;;;;;;13.34;72.96;101727.94;5012483;28;20381;-69
2023/05/18 04:15:13;;;;;;;;;;;;;;;13.30;71.24;101738.13;5022483;28;19913;-72
2023/05/18 04:17:44;;;;;;;;;;;;;;;13.29;72.05;101736.41;5012803;28;19920;-71
2023/05/18 04:20:11;;;;;;;;;;;;;;;13.34;72.08;101749.34;5012558;28;19920;-72
2023/05/18 04:22:45;;;;;;;;;;;;;;;13.45;73.09;101741.03;5009520;28;19937;-70
2023/05/18 04:25:11;;;;;;;;;;;;;;;13.84;71.27;101751.28;4992813;28;20242;-70
2023/05/18 04:27:38;;;;;;;;;;;;;;;13.77;70.46;101751.09;4991850;28;20296;-74
2023/05/18 04:30:04;;;;;;;;;;;;;;;14.32;68.30;101745.31;4997204;28;19924;-74
2023/05/18 04:32:35;;;;;;;;;;;;;;;15.19;67.01;101747.44;5015085;28;19968;-70
2023/05/18 04:35:00;;;;;;;;;;;;;;;15.93;59.79;101752.72;5015959;28;19936;-69
2023/05/18 04:37:26;;;;;;;;;;;;;;;16.75;57.60;101753.97;5016370;28;20417;-70
2023/05/18 04:39:52;;;;;;;;;;;;;;;17.32;56.31;101753.50;5016195;28;19918;-75
2023/05/18 04:42:18;;;;;;;;;;;;;;;17.36;53.80;101762.06;5014137;28;19922;-74
2023/05/18 04:44:44;;;;;;;;;;;;;;;16.78;54.90;101761.69;5013640;28;19917;-72
2023/05/18 04:47:09;;;;;;;;;;;;;;;15.51;58.61;101759.16;4998278;28;19968;-72
2023/05/18 04:49:34;;;;;;;;;;;;;;;15.79;60.36;101760.47;5015800;28;20269;-69
2023/05/18 04:52:00;;;;;;;;;;;;;;;16.73;56.22;101774.81;5015587;28;19913;-71
2023/05/18 04:54:27;;;;;;;;;;;;;;;16.48;55.51;101778.63;5014943;28;19919;-70
2023/05/18 04:56:52;;;;;;;;;;;;;;;15.92;57.67;101783.28;5015041;28;19963;-69
2023/05/18 04:59:17;;;;;;;;;;;;;;;16.02;56.37;101789.28;5014500;28;19952;-69
2023/05/18 05:01:43;;;;;;;;;;;;;;;15.23;57.88;101782.00;5014374;28;20332;-70
2023/05/18 05:04:09;;;;;;;;;;;;;;;14.53;61.06;101785.09;5014655;28;19913;-72
2023/05/18 05:06:34;;;;;;;;;;;;;;;14.83;60.90;101802.44;5014354;28;19913;-70
2023/05/18 05:09:00;;;;;;;;;;;;;;;13.92;62.62;101797.72;5012558;28;19967;-71
2023/05/18 05:11:25;;;;;;;;;;;;;;;12.96;66.63;101803.97;5015890;28;19917;-69
2023/05/18 05:13:54;;;;;;;;;;;;;;;12.58;69.51;101802.41;5017125;28;19913;-71
2023/05/18 05:16:20;;;;;;;;;;;;;;;12.48;71.01;101805.16;5015162;28;19968;-71
2023/05/18 05:18:45;;;;;;;;;;;;;;;12.64;71.29;101809.84;5016202;28;20313;-69
2023/05/18 05:21:10;;;;;;;;;;;;;;;12.35;71.59;101807.31;4997344;28;19921;-72
2023/05/18 05:23:36;;;;;;;;;;;;;;;12.25;73.51;101804.72;5014158;28;20308;-70
2023/05/18 05:26:02;;;;;;;;;;;;;;;12.23;72.84;101806.69;5013524;28;20381;-70
2023/05/18 05:28:27;;;;;;;;;;;;;;;12.26;72.82;101802.88;5014061;28;19918;-70
2023/05/18 05:30:53;;;;;;;;;;;;;;;12.32;73.13;101805.81;5014074;28;19967;-69
2023/05/18 05:33:18;;;;;;;;;;;;;;;12.44;72.24;101817.16;5014129;28;19917;-69
2023/05/18 05:35:43;;;;;;;;;;;;;;;12.09;73.93;101816.00;5011592;28;19975;-71
2023/05/18 05:38:09;;;;;;;;;;;;;;;11.70;75.87;101835.78;5013296;28;20377;-70
2023/05/18 05:40:34;;;;;;;;;;;;;;;11.35;75.66;101837.25;5015057;28;20436;-71
2023/05/18 05:43:06;;;;;;;;;;;;;;;11.11;75.77;101832.34;4981130;28;19920;-80
2023/05/18 05:45:31;;;;;;;;;;;;;;;11.03;77.02;101842.03;5014504;28;20012;-73
2023/05/18 05:47:57;;;;;;;;;;;;;;;11.01;77.51;101844.81;4981427;28;19972;-74
2023/05/18 05:50:22;;;;;;;;;;;;;;;11.06;77.11;101853.25;5014705;28;19945;-72
2023/05/18 05:52:48;;;;;;;;;;;;;;;11.12;76.17;101846.50;5013865;28;19953;-72
2023/05/18 05:55:13;;;;;;;;;;;;;;;11.03;75.82;101844.69;5014264;28;20469;-72
2023/05/18 05:57:41;;;;;;;;;;;;;;;11.23;76.37;101854.34;5014812;28;19967;-72
2023/05/18 06:00:10;;;;;;;;;;;;;;;11.44;76.49;101863.06;5014696;28;20004;-70
2023/05/18 06:02:36;;;;;;;;;;;;;;;12.01;74.18;101871.97;4996861;28;19921;-71
2023/05/18 06:05:01;;;;;;;;;;;;;;;12.27;68.56;101866.84;5013968;28;20405;-72
2023/05/18 06:07:27;;;;;;;;;;;;;;;12.26;67.98;101880.34;5014368;28;19913;-73
2023/05/18 06:09:52;;;;;;;;;;;;;;;11.99;68.67;101873.97;5014523;28;19960;-71
2023/05/18 06:12:18;;;;;;;;;;;;;;;11.85;69.98;101882.41;5014252;28;20350;-70
2023/05/18 06:14:43;;;;;;;;;;;;;;;11.84;71.04;101891.41;5013788;28;19975;-69
2023/05/18 06:17:09;;;;;;;;;;;;;;;11.76;71.18;101900.09;4996283;28;20281;-68
2023/05/18 06:19:34;;;;;;;;;;;;;;;11.45;70.80;101902.09;5013816;28;20019;-68
2023/05/18 06:22:00;;;;;;;;;;;;;;;11.67;71.47;101900.13;5013582;28;19913;-68
2023/05/18 06:24:25;;;;;;;;;;;;;;;12.08;68.51;101898.94;5013941;28;20016;-70
2023/05/18 06:26:51;;;;;;;;;;;;;;;12.17;67.97;101905.25;5013424;28;19917;-71
2023/05/18 06:29:17;;;;;;;;;;;;;;;11.86;66.39;101916.16;5013028;28;19917;-71
2023/05/18 06:31:42;;;;;;;;;;;;;;;11.73;67.68;101910.22;5013701;28;19946;-70
2023/05/18 06:34:08;;;;;;;;;;;;;;;11.91;67.67;101911.22;5013647;28;19913;-70
2023/05/18 06:36:33;;;;;;;;;;;;;;;11.92;66.71;101918.25;5013350;28;19917;-70
2023/05/18 06:38:58;;;;;;;;;;;;;;;12.02;67.74;101920.88;5013339;28;20297;-71
2023/05/18 06:41:24;;;;;;;;;;;;;;;12.10;68.60;101916.50;4996169;28;19925;-70
2023/05/18 06:43:49;;;;;;;;;;;;;;;12.00;67.63;101923.69;5013781;28;19913;-73
2023/05/18 06:46:19;;;;;;;;;;;;;;;11.84;68.08;101925.25;4996303;28;19917;-72
2023/05/18 06:48:45;;;;;;;;;;;;;;;11.95;69.99;101923.28;5013295;28;19914;-71
2023/05/18 06:51:15;;;;;;;;;;;;;;;12.08;67.91;101925.66;5012464;28;20148;-70
2023/05/18 06:53:40;;;;;;;;;;;;;;;12.13;67.85;101930.53;5012451;28;20289;-71
2023/05/18 06:56:06;;;;;;;;;;;;;;;12.14;68.64;101929.56;5013333;28;20361;-70
2023/05/18 06:58:31;;;;;;;;;;;;;;;12.28;68.24;101937.97;5013552;28;19936;-71
2023/05/18 07:00:56;;;;;;;;;;;;;;;12.46;68.12;101938.06;5013504;28;19917;-70
2023/05/18 07:03:22;;;;;;;;;;;;;;;12.38;66.97;101945.94;5013100;28;20008;-70
2023/05/18 07:05:47;;;;;;;;;;;;;;;12.17;68.99;101950.66;5012978;28;19917;-75
2023/05/18 07:08:12;;;;;;;;;;;;;;;12.14;68.66;101951.75;5013443;28;20281;-71
2023/05/18 07:10:38;;;;;;;;;;;;;;;12.37;68.51;101961.13;5013259;28;19913;-73
2023/05/18 07:13:03;;;;;;;;;;;;;;;12.39;68.19;101958.31;5013435;28;20341;-72
2023/05/18 07:15:28;;;;;;;;;;;;;;;12.43;67.87;101983.75;5012997;28;20396;-71
2023/05/18 07:17:54;;;;;;;;;;;;;;;12.09;67.65;101976.22;5013281;28;19914;-73
2023/05/18 07:20:20;;;;;;;;;;;;;;;11.92;68.36;101976.97;5013253;28;19929;-70
2023/05/18 07:22:45;;;;;;;;;;;;;;;11.85;68.30;101975.00;5013061;28;20007;-69
2023/05/18 07:25:10;;;;;;;;;;;;;;;11.78;68.43;101982.72;5013166;28;19918;-72
2023/05/18 07:27:36;;;;;;;;;;;;;;;12.08;68.74;101987.91;5013099;28;20369;-71
2023/05/18 07:30:01;;;;;;;;;;;;;;;12.50;65.84;101990.22;5013114;28;19921;-75
2023/05/18 07:32:28;;;;;;;;;;;;;;;12.60;63.60;102006.22;5013143;28;19913;-76
2023/05/18 07:34:54;;;;;;;;;;;;;;;12.28;64.71;102001.22;5012711;28;19924;-69
2023/05/18 07:37:19;;;;;;;;;;;;;;;12.42;67.09;102003.44;5012390;28;19913;-69
2023/05/18 07:39:44;;;;;;;;;;;;;;;12.62;64.61;102010.41;5012935;28;19921;-68
2023/05/18 07:42:10;;;;;;;;;;;;;;;12.68;64.66;102014.34;5012788;28;19914;-73
2023/05/18 07:44:35;;;;;;;;;;;;;;;12.80;67.38;102012.34;5013039;28;19913;-69
2023/05/18 07:47:00;;;;;;;;;;;;;;;13.02;66.22;102022.69;5012792;28;20345;-72
2023/05/18 07:49:26;;;;;;;;;;;;;;;13.17;63.65;102018.53;4994724;28;19963;-69
2023/05/18 07:51:51;;;;;;;;;;;;;;;13.30;64.35;102031.56;5012878;28;19921;-71
2023/05/18 07:54:16;;;;;;;;;;;;;;;13.20;60.81;102030.75;5014026;28;19945;-71
2023/05/18 07:56:43;;;;;;;;;;;;;;;13.10;62.09;102033.47;5014384;28;20000;-71
2023/05/18 07:59:08;;;;;;;;;;;;;;;13.31;63.19;102030.59;4998275;28;19914;-69
2023/05/18 08:01:34;;;;;;;;;;;;;;;13.41;62.43;102060.78;5018832;28;19994;-70
2023/05/18 08:03:59;;;;;;;;;;;;;;;13.07;62.85;102068.53;5016511;28;20489;-69
2023/05/18 08:06:24;;;;;;;;;;;;;;;12.90;65.08;102048.75;5015824;28;19928;-69
2023/05/18 08:08:50;;;;;;;;;;;;;;;12.77;66.30;102066.09;5016880;28;20384;-73
2023/05/18 08:11:16;;;;;;;;;;;;;;;12.83;67.15;102066.34;5016580;28;19932;-70
2023/05/18 08:13:41;;;;;;;;;;;;;;;13.06;65.44;102064.19;5016406;28;19917;-69
2023/05/18 08:16:06;;;;;;;;;;;;;;;13.40;64.16;102069.81;5016455;28;19914;-70
2023/05/18 08:18:32;;;;;;;;;;;;;;;13.75;61.64;102062.84;5016282;28;19972;-71
2023/05/18 08:20:57;;;;;;;;;;;;;;;13.77;60.94;102059.00;5016674;28;19918;-70
2023/05/18 08:23:25;;;;;;;;;;;;;;;13.65;60.96;102073.63;5016375;28;19956;-71
2023/05/18 08:25:51;;;;;;;;;;;;;;;13.47;62.45;102088.78;5016179;28;19949;-70
2023/05/18 08:28:17;;;;;;;;;;;;;;;13.40;62.68;102085.03;5016376;28;19917;-69
2023/05/18 08:30:42;;;;;;;;;;;;;;;13.35;60.98;102071.25;5016167;28;20265;-71
2023/05/18 08:33:08;;;;;;;;;;;;;;;13.30;61.44;102079.72;5016464;28;20372;-70
2023/05/18 08:35:33;;;;;;;;;;;;;;;13.05;62.45;102085.72;5016160;28;19914;-71
2023/05/18 08:37:59;;;;;;;;;;;;;;;12.92;64.03;102096.72;5016084;28;19921;-71
2023/05/18 08:40:31;;;;;;;;;;;;;;;12.85;64.26;102100.97;5016046;28;19913;-71
2023/05/18 08:43:10;;;;;;;;;;;;;;;12.74;64.75;102107.34;5016218;28;20293;-70
2023/05/18 08:45:51;;;;;;;;;;;;;;;12.34;65.33;102080.78;5015758;28;19921;-70
2023/05/18 08:48:16;;;;;;;;;;;;;;;12.24;67.03;102106.69;4982175;28;19917;-70
2023/05/18 08:50:43;;;;;;;;;;;;;;;12.03;66.98;102109.47;5015876;28;19940;-72
2023/05/18 08:53:09;;;;;;;;;;;;;;;11.83;68.61;102107.75;5015671;28;19973;-71
2023/05/18 08:55:35;;;;;;;;;;;;;;;11.78;67.20;102105.50;5015734;28;19913;-72
2023/05/18 08:58:02;;;;;;;;;;;;;;;11.78;66.04;102116.19;5015624;28;20354;-71
2023/05/18 09:00:27;;;;;;;;;;;;;;;11.71;67.67;102121.19;5015409;28;19925;-70
2023/05/18 09:02:53;;;;;;;;;;;;;;;11.59;68.36;102110.78;5015496;28;19913;-72
2023/05/18 09:05:19;;;;;;;;;;;;;;;11.62;67.48;102127.34;5015430;28;20412;-70
2023/05/18 09:07:45;;;;;;;;;;;;;;;11.64;66.94;102121.88;5015385;28;19920;-71
2023/05/18 09:10:11;;;;;;;;;;;;;;;11.54;66.92;102123.66;5015383;28;19913;-72
2023/05/18 09:12:37;;;;;;;;;;;;;;;11.60;67.43;102129.31;5015517;28;19949;-70
2023/05/18 09:15:03;;;;;;;;;;;;;;;11.72;68.12;102127.38;5015147;28;19924;-70
2023/05/18 09:17:29;;;;;;;;;;;;;;;11.90;67.58;102125.78;5014603;28;19971;-71
2023/05/18 09:19:54;;;;;;;;;;;;;;;12.10;66.14;102126.63;5015438;28;19941;-72
2023/05/18 09:22:20;;;;;;;;;;;;;;;11.95;65.71;102130.69;5015304;28;20032;-71
2023/05/18 09:24:46;;;;;;;;;;;;;;;12.02;65.75;102135.31;5014919;28;20340;-69
2023/05/18 09:27:11;;;;;;;;;;;;;;;12.08;64.41;102148.13;5015264;28;19918;-70
2023/05/18 09:29:49;;;;;;;;;;;;;;;12.08;63.57;102131.25;5015057;28;19924;-69
2023/05/18 09:32:15;;;;;;;;;;;;;;;12.24;62.00;102139.56;5015101;28;20234;-69
2023/05/18 09:34:41;;;;;;;;;;;;;;;12.29;63.15;102141.81;5014946;28;19960;-71
2023/05/18 09:37:06;;;;;;;;;;;;;;;12.40;62.38;102133.66;5015092;28;19924;-69
2023/05/18 09:39:31;;;;;;;;;;;;;;;12.48;62.85;102146.34;5015104;28;19917;-71
2023/05/18 09:41:57;;;;;;;;;;;;;;;12.34;60.51;102145.75;5014498;28;19963;-71
2023/05/18 09:44:35;;;;;;;;;;;;;;;12.51;61.48;102141.53;5014830;28;19960;-70
2023/05/18 09:47:01;;;;;;;;;;;;;;;12.66;59.23;102149.97;5013959;28;19913;-71
2023/05/18 09:49:30;;;;;;;;;;;;;;;12.67;57.05;102138.28;5014952;28;20056;-73
2023/05/18 09:51:56;;;;;;;;;;;;;;;12.65;57.22;102137.56;5014932;28;19913;-71
2023/05/18 09:54:21;;;;;;;;;;;;;;;12.68;55.42;102139.97;5014483;28;20273;-71
2023/05/18 09:56:48;;;;;;;;;;;;;;;12.71;56.51;102143.19;5015005;28;19927;-72
2023/05/18 09:59:14;;;;;;;;;;;;;;;12.91;57.18;102137.81;4996320;28;19914;-69
2023/05/18 10:01:55;;;;;;;;;;;;;;;13.03;54.79;102140.19;4996097;28;19914;-74
2023/05/18 10:04:20;;;;;;;;;;;;;;;13.00;53.83;102153.00;5012626;28;19913;-73
2023/05/18 10:06:50;;;;;;;;;;;;;;;12.85;50.85;102143.75;5014383;28;19925;-70
2023/05/18 10:09:16;;;;;;;;;;;;;;;12.79;52.36;102141.66;5014173;28;19934;-70
2023/05/18 10:11:47;;;;;;;;;;;;;;;12.83;52.67;102172.47;5013916;28;19913;-70
2023/05/18 10:14:16;;;;;;;;;;;;;;;12.76;51.35;102166.84;5014536;28;19913;-71
2023/05/18 10:16:41;;;;;;;;;;;;;;;12.58;51.26;102177.41;4996519;28;19913;-69
2023/05/18 10:19:07;;;;;;;;;;;;;;;12.49;52.85;102161.38;5013443;28;20000;-73
2023/05/18 10:21:33;;;;;;;;;;;;;;;12.49;53.27;102153.38;5014301;28;19960;-72
2023/05/18 10:23:58;;;;;;;;;;;;;;;12.53;53.17;102155.59;5015637;28;19913;-70
2023/05/18 10:33:05;;;;;;;;;;;;;;;12.62;51.85;102176.13;5011623;28;19924;-74
2023/05/18 10:35:32;;;;;;;;;;;;;;;12.62;51.12;102172.63;4988468;28;19988;-70
2023/05/18 10:37:58;;;;;;;;;;;;;;;12.49;49.20;102177.41;5012781;28;19928;-75
2023/05/18 10:40:23;;;;;;;;;;;;;;;12.30;48.20;102172.88;5005497;28;19949;-74
2023/05/18 10:42:51;;;;;;;;;;;;;;;12.20;49.77;102190.75;5003797;28;19925;-78
2023/05/18 10:45:16;;;;;;;;;;;;;;;12.17;50.19;102169.66;4976973;28;19953;-74
2023/05/18 10:47:42;;;;;;;;;;;;;;;12.18;49.41;102184.69;4969988;28;20012;-73
2023/05/18 10:50:08;;;;;;;;;;;;;;;12.18;49.92;102182.03;4974491;28;19925;-72
2023/05/18 10:52:35;;;;;;;;;;;;;;;12.14;49.13;102186.78;4983267;28;19913;-73
2023/05/18 10:55:00;;;;;;;;;;;;;;;12.18;50.08;102177.53;4983329;28;19918;-73
2023/05/18 10:57:32;;;;;;;;;;;;;;;12.21;49.28;102179.06;4982474;28;19930;-72
2023/05/18 10:59:58;;;;;;;;;;;;;;;12.28;49.93;102177.53;4983576;28;19918;-73
2023/05/18 11:02:24;;;;;;;;;;;;;;;12.34;49.46;102195.66;4984376;28;20362;-73
2023/05/18 11:04:51;;;;;;;;;;;;;;;12.28;48.79;102189.06;4980232;28;19914;-72
2023/05/18 11:07:19;;;;;;;;;;;;;;;12.32;49.55;102192.28;4986572;28;20358;-71
2023/05/18 11:09:44;;;;;;;;;;;;;;;12.16;48.67;102210.69;4982118;28;19917;-73
2023/05/18 11:12:11;;;;;;;;;;;;;;;12.18;49.79;102204.25;4987924;28;19913;-74
2023/05/18 11:14:46;;;;;;;;;;;;;;;12.19;50.29;102194.41;4980957;28;19981;-72
2023/05/18 11:17:21;;;;;;;;;;;;;;;12.21;50.21;102206.63;4990768;28;19913;-75
2023/05/18 11:22:48;;;;;;;;;;;;;;;12.32;49.75;102217.19;4986571;28;19920;-73
2023/05/18 11:25:34;;;;;;;;;;;;;;;12.40;49.15;102208.47;4985849;28;19977;-72
2023/05/18 11:28:03;;;;;;;;;;;;;;;12.40;49.63;102200.44;5000454;28;19925;-75
2023/05/18 11:30:29;;;;;;;;;;;;;;;12.31;50.03;102198.63;5003319;28;19918;-74
2023/05/18 11:33:16;;;;;;;;;;;;;;;12.34;50.40;102209.03;5004280;28;19913;-73
2023/05/18 11:36:00;;;;;;;;;;;;;;;12.39;49.22;102204.94;5004914;28;20020;-73
2023/05/18 11:38:46;;;;;;;;;;;;;;;12.39;48.97;102212.13;5006661;28;19921;-72
2023/05/18 11:41:41;;;;;;;;;;;;;;;12.39;49.34;102218.31;4994915;28;19921;-72
2023/05/18 11:44:15;;;;;;;;;;;;;;;12.35;48.50;102208.03;5001712;28;19920;-74
2023/05/18 11:46:50;;;;;;;;;;;;;;;12.37;48.21;102211.41;5005222;28;19913;-74
2023/05/18 11:49:16;;;;;;;;;;;;;;;12.34;48.89;102214.38;5004621;28;20346;-73
2023/05/18 11:52:13;;;;;;;;;;;;;;;12.40;49.34;102221.81;5002889;28;19964;-76
2023/05/18 11:54:41;;;;;;;;;;;;;;;12.35;49.45;102221.41;4975946;28;19913;-74
2023/05/18 11:57:07;;;;;;;;;;;;;;;12.34;49.11;102230.41;5000112;28;20004;-73
2023/05/18 11:59:35;;;;;;;;;;;;;;;12.32;48.53;102221.69;5001410;28;19914;-73
2023/05/18 12:02:01;;;;;;;;;;;;;;;12.36;49.70;102229.28;5001565;28;19914;-74
2023/05/18 12:04:27;;;;;;;;;;;;;;;12.45;49.89;102229.44;5001818;28;20003;-73
2023/05/18 12:06:53;;;;;;;;;;;;;;;12.53;49.68;102227.75;5004385;28;20384;-73
2023/05/18 12:09:19;;;;;;;;;;;;;;;12.56;48.64;102231.97;5006014;28;20012;-74
2023/05/18 12:11:44;;;;;;;;;;;;;;;12.51;48.16;102236.91;5003308;28;20014;-74
2023/05/18 12:14:10;;;;;;;;;;;;;;;12.50;48.86;102225.38;5003001;28;19913;-73
2023/05/18 12:16:36;;;;;;;;;;;;;;;12.60;49.30;102230.72;4989307;28;19914;-73
2023/05/18 12:19:01;;;;;;;;;;;;;;;12.69;49.47;102241.41;5002729;28;20372;-72
2023/05/18 12:21:27;;;;;;;;;;;;;;;12.69;49.63;102243.22;5003267;28;20247;-71
2023/05/18 12:24:02;;;;;;;;;;;;;;;12.60;48.82;102236.91;5009789;28;20349;-73
2023/05/18 12:26:27;;;;;;;;;;;;;;;12.52;49.19;102244.78;5006980;28;19940;-73
2023/05/18 12:28:56;;;;;;;;;;;;;;;12.54;49.04;102248.16;5000944;28;20327;-73
2023/05/18 12:31:22;;;;;;;;;;;;;;;12.59;49.06;102237.88;5004231;28;19918;-71
2023/05/18 12:33:47;;;;;;;;;;;;;;;12.66;49.20;102247.03;5003177;28;19921;-69
2023/05/18 12:36:13;;;;;;;;;;;;;;;12.64;47.35;102243.66;5004034;28;19921;-73
2023/05/18 12:38:39;;;;;;;;;;;;;;;12.55;48.67;102239.16;5001200;28;20358;-72
2023/05/18 12:41:05;;;;;;;;;;;;;;;12.57;47.84;102255.88;5012313;28;20278;-71
2023/05/18 12:43:34;;;;;;;;;;;;;;;12.59;47.69;102256.59;5012029;28;19921;-70